createdAt,value
2019-02-27T00:00:57.447Z,86.7
2019-02-27T00:01:58.793Z,86.3
2019-02-27T00:03:00.166Z,86.3
2019-02-27T00:04:02.367Z,85.6
2019-02-27T00:05:02.868Z,85.8
2019-02-27T00:06:04.231Z,85.1
2019-02-27T00:07:05.616Z,85.5
2019-02-27T00:08:07.054Z,85.0
2019-02-27T00:09:08.430Z,84.6
2019-02-27T00:10:09.804Z,84.6
2019-02-27T00:11:12.357Z,84.7
2019-02-27T00:12:12.551Z,84.9
2019-02-27T00:13:13.922Z,85.1
2019-02-27T00:14:15.296Z,84.7
2019-02-27T00:15:16.731Z,84.8
2019-02-27T00:16:18.102Z,84.8
2019-02-27T00:17:19.515Z,84.6
2019-02-27T00:18:23.760Z,84.9
2019-02-27T00:19:22.223Z,84.7
2019-02-27T00:20:23.602Z,84.8
2019-02-27T00:21:25.153Z,84.8
2019-02-27T00:22:26.586Z,85.6
2019-02-27T00:23:27.995Z,85.8
2019-02-27T00:24:29.897Z,86.5
2019-02-27T00:25:30.771Z,86.3
2019-02-27T00:26:32.212Z,86.5
2019-02-27T00:27:33.643Z,86.9
2019-02-27T00:28:35.092Z,86.7
2019-02-27T00:29:36.485Z,87.4
2019-02-27T00:30:38.105Z,87.3
2019-02-27T00:31:39.302Z,87.0
2019-02-27T00:32:40.753Z,87.2
2019-02-27T00:33:42.199Z,87.1
2019-02-27T00:34:43.640Z,87.2
2019-02-27T00:35:45.134Z,87.0
2019-02-27T00:36:46.611Z,87.6
2019-02-27T00:37:51.853Z,87.8
2019-02-27T00:38:49.458Z,87.4
2019-02-27T00:39:50.946Z,87.7
2019-02-27T00:40:52.357Z,87.5
2019-02-27T00:41:53.759Z,87.6
2019-02-27T00:42:55.162Z,87.0
2019-02-27T00:44:01.082Z,87.0
2019-02-27T00:44:57.964Z,87.0
2019-02-27T00:45:59.318Z,87.5
2019-02-27T00:47:00.709Z,86.5
2019-02-27T00:48:02.104Z,86.3
2019-02-27T00:49:03.509Z,86.4
2019-02-27T00:50:06.593Z,86.4
2019-02-27T00:51:06.222Z,86.4
2019-02-27T00:52:07.648Z,85.7
2019-02-27T00:53:09.056Z,85.8
2019-02-27T00:54:10.466Z,86.2
2019-02-27T00:55:11.867Z,85.4
2019-02-27T00:56:13.253Z,85.0
2019-02-27T00:57:15.180Z,84.9
2019-02-27T00:58:16.097Z,84.4
2019-02-27T00:59:17.527Z,84.6
2019-02-27T01:00:18.930Z,84.2
2019-02-27T01:01:20.287Z,84.1
2019-02-27T01:02:21.806Z,84.2
2019-02-27T01:03:25.990Z,83.9
2019-02-27T01:04:24.636Z,83.6
2019-02-27T01:05:26.128Z,83.5
2019-02-27T01:06:27.557Z,83.6
2019-02-27T01:07:28.970Z,83.6
2019-02-27T01:08:30.358Z,83.9
2019-02-27T01:09:31.815Z,84.6
2019-02-27T01:10:33.214Z,85.4
2019-02-27T01:11:34.669Z,85.7
2019-02-27T01:12:36.049Z,86.6
2019-02-27T01:13:37.424Z,86.8
2019-02-27T01:14:38.810Z,87.1
2019-02-27T01:15:41.837Z,87.6
2019-02-27T01:16:41.515Z,87.8
2019-02-27T01:17:42.877Z,88.2
2019-02-27T01:18:44.249Z,88.0
2019-02-27T01:19:45.618Z,88.3
2019-02-27T01:20:46.987Z,88.4
2019-02-27T01:21:48.351Z,88.6
2019-02-27T01:22:49.725Z,88.6
2019-02-27T01:23:51.099Z,88.5
2019-02-27T01:24:52.456Z,88.6
2019-02-27T01:25:56.031Z,88.6
2019-02-27T01:26:55.217Z,88.3
2019-02-27T01:27:56.568Z,88.3
2019-02-27T01:28:57.928Z,88.1
2019-02-27T01:29:59.290Z,88.6
2019-02-27T01:31:00.720Z,88.4
2019-02-27T01:32:02.129Z,88.5
2019-02-27T01:33:04.206Z,88.5
2019-02-27T01:34:04.888Z,87.8
2019-02-27T01:35:06.249Z,87.8
2019-02-27T01:36:07.668Z,88.4
2019-02-27T01:37:09.048Z,88.2
2019-02-27T01:38:10.470Z,88.5
2019-02-27T01:39:12.025Z,88.1
2019-02-27T01:40:17.417Z,88.2
2019-02-27T01:41:14.592Z,88.4
2019-02-27T01:42:16.060Z,88.3
2019-02-27T01:43:17.464Z,88.4
2019-02-27T01:44:18.851Z,88.6
2019-02-27T01:45:21.027Z,88.1
2019-02-27T01:46:21.562Z,88.0
2019-02-27T01:47:22.976Z,87.9
2019-02-27T01:48:24.340Z,88.5
2019-02-27T01:49:25.730Z,88.4
2019-02-27T01:50:27.135Z,88.2
2019-02-27T01:51:28.898Z,88.6
2019-02-27T01:52:33.969Z,88.2
2019-02-27T01:53:31.180Z,88.2
2019-02-27T01:54:32.566Z,88.4
2019-02-27T01:55:33.926Z,88.5
2019-02-27T01:56:35.287Z,88.6
2019-02-27T01:57:36.785Z,87.6
2019-02-27T01:58:38.050Z,87.9
2019-02-27T01:59:39.419Z,88.3
2019-02-27T02:00:40.816Z,88.2
2019-02-27T02:01:42.196Z,88.8
2019-02-27T02:02:43.592Z,88.5
2019-02-27T02:03:47.296Z,88.5
2019-02-27T02:04:46.365Z,88.3
2019-02-27T02:05:47.753Z,88.3
2019-02-27T02:06:49.150Z,88.9
2019-02-27T02:07:50.580Z,88.7
2019-02-27T02:08:51.972Z,88.5
2019-02-27T02:09:55.200Z,88.6
2019-02-27T02:10:54.713Z,88.0
2019-02-27T02:11:56.087Z,87.6
2019-02-27T02:12:57.487Z,88.0
2019-02-27T02:13:58.869Z,87.8
2019-02-27T02:15:00.318Z,87.7
2019-02-27T02:16:01.695Z,87.8
2019-02-27T02:17:05.075Z,88.2
2019-02-27T02:18:04.495Z,87.9
2019-02-27T02:19:05.895Z,87.6
2019-02-27T02:20:07.325Z,87.8
2019-02-27T02:21:08.767Z,88.3
2019-02-27T02:22:10.199Z,88.6
2019-02-27T02:23:14.009Z,88.6
2019-02-27T02:24:13.070Z,88.2
2019-02-27T02:25:14.496Z,88.7
2019-02-27T02:26:15.905Z,88.7
2019-02-27T02:27:17.399Z,88.8
2019-02-27T02:28:18.771Z,88.6
2019-02-27T02:29:20.371Z,88.6
2019-02-27T02:30:29.317Z,88.4
2019-02-27T02:31:23.150Z,88.7
2019-02-27T02:32:24.619Z,89.0
2019-02-27T02:33:29.387Z,88.3
2019-02-27T02:34:27.389Z,88.6
2019-02-27T02:35:28.794Z,88.3
2019-02-27T02:36:30.195Z,87.6
2019-02-27T02:37:33.748Z,87.4
2019-02-27T02:38:33.104Z,87.3
2019-02-27T02:39:34.516Z,87.4
2019-02-27T02:40:35.942Z,87.0
2019-02-27T02:41:37.344Z,87.2
2019-02-27T02:42:38.833Z,87.0
2019-02-27T02:43:41.533Z,87.2
2019-02-27T02:44:41.677Z,87.2
2019-02-27T02:45:43.101Z,87.2
2019-02-27T02:46:45.478Z,87.1
2019-02-27T02:47:45.926Z,87.4
2019-02-27T02:48:47.347Z,87.9
2019-02-27T02:49:48.831Z,88.0
2019-02-27T02:50:53.971Z,88.0
2019-02-27T02:51:51.596Z,88.0
2019-02-27T02:52:53.098Z,87.6
2019-02-27T02:54:00.407Z,88.4
2019-02-27T02:54:55.914Z,88.4
2019-02-27T02:55:57.328Z,88.2
2019-02-27T02:57:00.460Z,88.7
2019-02-27T02:58:00.024Z,88.7
2019-02-27T02:59:01.422Z,88.8
2019-02-27T03:00:02.906Z,88.5
2019-02-27T03:01:04.374Z,88.6
2019-02-27T03:02:05.783Z,88.6
2019-02-27T03:03:07.273Z,88.2
2019-02-27T03:04:12.486Z,88.4
2019-02-27T03:05:10.027Z,88.6
2019-02-27T03:06:11.394Z,88.0
2019-02-27T03:07:12.771Z,88.5
2019-02-27T03:08:19.825Z,88.8
2019-02-27T03:09:15.527Z,88.8
2019-02-27T03:10:16.948Z,89.5
2019-02-27T03:11:19.142Z,89.2
2019-02-27T03:12:19.707Z,89.3
2019-02-27T03:13:21.165Z,89.5
2019-02-27T03:14:22.635Z,89.5
2019-02-27T03:15:28.396Z,88.8
2019-02-27T03:16:25.421Z,88.7
2019-02-27T03:17:26.882Z,88.8
2019-02-27T03:18:29.734Z,88.7
2019-02-27T03:19:29.724Z,88.6
2019-02-27T03:20:31.112Z,88.0
2019-02-27T03:21:32.519Z,88.3
2019-02-27T03:22:40.475Z,88.4
2019-02-27T03:23:35.262Z,88.4
2019-02-27T03:24:36.627Z,88.5
2019-02-27T03:25:40.669Z,88.3
2019-02-27T03:26:39.348Z,88.3
2019-02-27T03:27:40.733Z,88.4
2019-02-27T03:28:42.095Z,88.3
2019-02-27T03:29:43.456Z,88.8
2019-02-27T03:30:44.848Z,88.7
2019-02-27T03:31:46.243Z,88.3
2019-02-27T03:32:47.598Z,88.9
2019-02-27T03:33:48.967Z,88.5
2019-02-27T03:34:51.091Z,88.3
2019-02-27T03:35:51.719Z,89.0
2019-02-27T03:36:53.154Z,88.5
2019-02-27T03:37:54.583Z,89.0
2019-02-27T03:38:59.069Z,89.1
2019-02-27T03:39:57.335Z,89.5
2019-02-27T03:40:58.725Z,89.3
2019-02-27T03:42:00.092Z,89.5
2019-02-27T03:43:01.482Z,89.5
2019-02-27T03:44:02.890Z,89.7
2019-02-27T03:45:04.302Z,89.5
2019-02-27T03:46:06.318Z,89.5
2019-02-27T03:47:07.052Z,89.7
2019-02-27T03:48:08.441Z,89.4
2019-02-27T03:49:09.803Z,89.6
2019-02-27T03:50:14.687Z,89.4
2019-02-27T03:51:12.521Z,89.7
2019-02-27T03:52:13.914Z,88.8
2019-02-27T03:53:15.285Z,88.5
2019-02-27T03:54:20.888Z,88.8
2019-02-27T03:55:17.979Z,89.0
2019-02-27T03:56:19.383Z,88.9
2019-02-27T03:57:20.731Z,88.4
2019-02-27T03:58:22.103Z,88.4
2019-02-27T03:59:23.471Z,88.7
2019-02-27T04:00:24.844Z,89.1
2019-02-27T04:01:30.019Z,88.7
2019-02-27T04:02:27.554Z,89.0
2019-02-27T04:03:28.920Z,89.0
2019-02-27T04:04:30.867Z,88.3
2019-02-27T04:05:31.650Z,88.4
2019-02-27T04:06:33.013Z,89.0
2019-02-27T04:07:34.379Z,88.4
2019-02-27T04:08:35.743Z,88.7
2019-02-27T04:09:37.120Z,88.9
2019-02-27T04:10:38.495Z,88.5
2019-02-27T04:11:42.621Z,89.0
2019-02-27T04:12:41.224Z,88.7
2019-02-27T04:13:42.571Z,88.6
2019-02-27T04:14:43.922Z,88.6
2019-02-27T04:15:45.318Z,88.8
2019-02-27T04:16:46.695Z,88.9
2019-02-27T04:17:51.805Z,88.5
2019-02-27T04:18:49.412Z,88.9
2019-02-27T04:19:50.789Z,88.4
2019-02-27T04:20:52.149Z,88.5
2019-02-27T04:21:53.529Z,88.5
2019-02-27T04:22:54.896Z,88.1
2019-02-27T04:23:56.258Z,88.9
2019-02-27T04:24:57.750Z,88.7
2019-02-27T04:26:05.266Z,89.0
2019-02-27T04:27:00.828Z,88.4
2019-02-27T04:28:02.281Z,88.8
2019-02-27T04:29:04.452Z,88.7
2019-02-27T04:30:05.012Z,88.9
2019-02-27T04:31:06.461Z,88.8
2019-02-27T04:32:09.631Z,88.7
2019-02-27T04:33:09.307Z,88.9
2019-02-27T04:34:10.749Z,88.8
2019-02-27T04:35:12.138Z,89.0
2019-02-27T04:36:13.573Z,88.7
2019-02-27T04:37:14.980Z,88.4
2019-02-27T04:38:16.487Z,88.2
2019-02-27T04:39:17.848Z,87.9
2019-02-27T04:40:19.237Z,87.4
2019-02-27T04:41:20.638Z,87.2
2019-02-27T04:42:22.938Z,87.4
2019-02-27T04:43:23.527Z,87.2
2019-02-27T04:44:25.006Z,86.6
2019-02-27T04:45:26.396Z,86.8
2019-02-27T04:46:27.774Z,86.5
2019-02-27T04:47:29.774Z,86.7
2019-02-27T04:48:30.682Z,86.8
2019-02-27T04:49:34.734Z,86.7
2019-02-27T04:50:33.601Z,86.6
2019-02-27T04:51:35.013Z,86.5
2019-02-27T04:52:36.390Z,86.5
2019-02-27T04:53:37.939Z,86.5
2019-02-27T04:54:41.236Z,86.3
2019-02-27T04:55:40.811Z,86.5
2019-02-27T04:56:42.294Z,86.3
2019-02-27T04:57:43.734Z,86.5
2019-02-27T04:58:45.116Z,86.5
2019-02-27T04:59:46.637Z,86.5
2019-02-27T05:00:48.127Z,86.5
2019-02-27T05:01:49.486Z,86.5
2019-02-27T05:02:53.538Z,86.2
2019-02-27T05:03:52.327Z,86.4
2019-02-27T05:04:53.764Z,86.6
2019-02-27T05:05:55.272Z,86.6
2019-02-27T05:06:56.692Z,86.5
2019-02-27T05:07:58.182Z,87.4
2019-02-27T05:09:00.269Z,87.1
2019-02-27T05:10:01.107Z,87.6
2019-02-27T05:11:02.496Z,88.0
2019-02-27T05:12:03.861Z,87.8
2019-02-27T05:13:05.270Z,87.8
2019-02-27T05:14:06.693Z,87.8
2019-02-27T05:15:08.059Z,88.0
2019-02-27T05:16:13.853Z,87.4
2019-02-27T05:17:10.831Z,87.5
2019-02-27T05:18:12.205Z,87.6
2019-02-27T05:19:15.207Z,87.5
2019-02-27T05:20:15.111Z,86.5
2019-02-27T05:21:18.921Z,86.7
2019-02-27T05:22:18.088Z,86.4
2019-02-27T05:23:19.499Z,86.8
2019-02-27T05:24:20.874Z,86.5
2019-02-27T05:25:22.324Z,86.3
2019-02-27T05:26:27.085Z,87.4
2019-02-27T05:27:25.199Z,87.3
2019-02-27T05:28:26.646Z,87.2
2019-02-27T05:29:28.114Z,87.4
2019-02-27T05:30:29.645Z,87.6
2019-02-27T05:31:31.070Z,88.1
2019-02-27T05:32:32.456Z,88.0
2019-02-27T05:33:36.060Z,88.0
2019-02-27T05:34:35.354Z,87.9
2019-02-27T05:35:36.838Z,87.8
2019-02-27T05:36:38.277Z,87.1
2019-02-27T05:37:39.725Z,87.0
2019-02-27T05:38:43.502Z,87.2
2019-02-27T05:39:42.691Z,87.2
2019-02-27T05:40:44.186Z,87.4
2019-02-27T05:41:45.618Z,87.4
2019-02-27T05:42:47.072Z,86.8
2019-02-27T05:43:48.724Z,86.5
2019-02-27T05:44:49.871Z,86.6
2019-02-27T05:45:51.286Z,86.7
2019-02-27T05:46:52.677Z,86.3
2019-02-27T05:47:54.160Z,86.8
2019-02-27T05:48:55.584Z,86.3
2019-02-27T05:49:57.923Z,86.6
2019-02-27T05:50:58.517Z,86.3
2019-02-27T05:51:59.971Z,86.5
2019-02-27T05:53:01.427Z,86.5
2019-02-27T05:54:02.834Z,86.5
2019-02-27T05:55:06.429Z,85.7
2019-02-27T05:56:05.663Z,86.5
2019-02-27T05:57:07.138Z,85.6
2019-02-27T05:58:08.557Z,86.7
2019-02-27T05:59:10.000Z,86.3
2019-02-27T06:00:11.638Z,86.1
2019-02-27T06:01:13.001Z,86.3
2019-02-27T06:02:14.417Z,85.9
2019-02-27T06:03:18.117Z,86.7
2019-02-27T06:04:18.195Z,86.5
2019-02-27T06:05:18.818Z,86.5
2019-02-27T06:06:20.425Z,86.8
2019-02-27T06:07:21.895Z,86.9
2019-02-27T06:08:23.549Z,86.8
2019-02-27T06:09:24.999Z,86.3
2019-02-27T06:10:26.470Z,87.3
2019-02-27T06:11:29.577Z,87.5
2019-02-27T06:12:29.415Z,87.5
2019-02-27T06:13:30.822Z,87.2
2019-02-27T06:14:32.392Z,87.2
2019-02-27T06:15:33.830Z,87.5
2019-02-27T06:16:37.233Z,87.9
2019-02-27T06:17:43.124Z,87.6
2019-02-27T06:18:38.298Z,88.6
2019-02-27T06:19:39.918Z,88.3
2019-02-27T06:20:41.932Z,88.5
2019-02-27T06:21:42.863Z,88.4
2019-02-27T06:22:44.395Z,88.5
2019-02-27T06:23:46.097Z,88.2
2019-02-27T06:24:47.686Z,88.7
2019-02-27T06:25:49.159Z,88.5
2019-02-27T06:26:50.856Z,88.4
2019-02-27T06:27:52.324Z,88.9
2019-02-27T06:28:53.988Z,89.3
2019-02-27T06:29:57.054Z,89.5
2019-02-27T06:30:57.021Z,89.4
2019-02-27T06:31:58.714Z,89.3
2019-02-27T06:33:00.297Z,89.0
2019-02-27T06:34:01.938Z,89.0
2019-02-27T06:35:03.438Z,89.4
2019-02-27T06:36:05.321Z,88.7
2019-02-27T06:37:06.560Z,88.9
2019-02-27T06:38:08.317Z,88.6
2019-02-27T06:39:09.900Z,89.1
2019-02-27T06:40:11.654Z,88.7
2019-02-27T06:41:15.432Z,88.7
2019-02-27T06:42:15.377Z,88.7
2019-02-27T06:43:17.040Z,89.0
2019-02-27T06:44:19.097Z,89.0
2019-02-27T06:45:19.893Z,88.9
2019-02-27T06:46:21.531Z,89.0
2019-02-27T06:47:23.148Z,88.2
2019-02-27T06:48:24.729Z,88.9
2019-02-27T06:49:26.303Z,88.5
2019-02-27T06:50:27.982Z,87.6
2019-02-27T06:51:29.483Z,87.6
2019-02-27T06:52:31.050Z,87.4
2019-02-27T06:53:32.750Z,86.8
2019-02-27T06:54:34.319Z,85.9
2019-02-27T06:55:35.935Z,85.5
2019-02-27T06:56:37.465Z,85.0
2019-02-27T06:57:41.303Z,84.1
2019-02-27T06:58:40.589Z,83.4
2019-02-27T06:59:42.017Z,83.3
2019-02-27T07:00:43.570Z,82.7
2019-02-27T07:01:47.402Z,82.2
2019-02-27T07:02:46.536Z,81.5
2019-02-27T07:03:48.116Z,80.4
2019-02-27T07:04:49.600Z,79.4
2019-02-27T07:05:51.214Z,79.5
2019-02-27T07:06:54.968Z,79.3
2019-02-27T07:07:54.069Z,77.9
2019-02-27T07:08:55.694Z,77.4
2019-02-27T07:09:57.218Z,77.7
2019-02-27T07:11:09.920Z,76.7
2019-02-27T07:12:00.466Z,77.3
2019-02-27T07:13:02.057Z,75.9
2019-02-27T07:14:03.474Z,75.1
2019-02-27T07:15:05.133Z,74.6
2019-02-27T07:16:06.666Z,73.6
2019-02-27T07:17:08.269Z,73.2
2019-02-27T07:18:11.831Z,73.3
2019-02-27T07:19:13.205Z,73.2
2019-02-27T07:20:13.061Z,72.4
2019-02-27T07:21:14.695Z,71.4
2019-02-27T07:22:16.486Z,71.5
2019-02-27T07:23:22.773Z,71.2
2019-02-27T07:24:19.571Z,70.8
2019-02-27T07:25:21.183Z,69.6
2019-02-27T07:26:22.738Z,69.1
2019-02-27T07:27:24.577Z,68.9
2019-02-27T07:28:25.975Z,68.5
2019-02-27T07:29:28.063Z,68.3
2019-02-27T07:30:29.725Z,68.4
2019-02-27T07:31:31.628Z,68.2
2019-02-27T07:32:33.406Z,68.0
2019-02-27T07:33:37.936Z,67.5
2019-02-27T07:34:36.875Z,67.6
2019-02-27T07:35:38.456Z,66.0
2019-02-27T07:36:40.206Z,66.0
2019-02-27T07:37:44.849Z,64.9
2019-02-27T07:38:43.942Z,64.6
2019-02-27T07:39:45.726Z,63.2
2019-02-27T07:40:47.652Z,62.8
2019-02-27T07:41:49.629Z,61.8
2019-02-27T07:42:51.553Z,61.0
2019-02-27T07:43:53.505Z,60.0
2019-02-27T07:44:55.556Z,60.3
2019-02-27T07:45:57.217Z,59.4
2019-02-27T07:46:59.031Z,58.0
2019-02-27T07:48:00.987Z,58.9
2019-02-27T07:49:02.589Z,58.8
2019-02-27T07:50:06.401Z,58.2
2019-02-27T07:51:06.172Z,57.9
2019-02-27T07:52:07.939Z,57.9
2019-02-27T07:53:09.508Z,57.9
2019-02-27T07:54:11.321Z,57.4
2019-02-27T07:55:21.140Z,55.6
2019-02-27T07:56:14.407Z,55.3
2019-02-27T07:57:16.246Z,54.4
2019-02-27T07:58:17.962Z,55.3
2019-02-27T07:59:19.761Z,54.4
2019-02-27T08:00:21.372Z,55.0
2019-02-27T08:01:23.656Z,55.2
2019-02-27T08:02:24.399Z,54.6
2019-02-27T08:03:25.903Z,54.5
2019-02-27T08:04:27.420Z,54.3
2019-02-27T08:05:29.154Z,54.7
2019-02-27T08:06:30.376Z,54.9
2019-02-27T08:07:31.935Z,54.0
2019-02-27T08:08:33.384Z,54.1
2019-02-27T08:09:34.816Z,53.2
2019-02-27T08:10:36.884Z,53.2
2019-02-27T08:11:37.715Z,52.5
2019-02-27T08:12:39.218Z,52.0
2019-02-27T08:13:40.710Z,51.5
2019-02-27T08:14:42.230Z,51.7
2019-02-27T08:15:43.637Z,51.2
2019-02-27T08:16:45.208Z,51.3
2019-02-27T08:17:46.631Z,51.1
2019-02-27T08:18:48.108Z,51.6
2019-02-27T08:19:49.535Z,51.3
2019-02-27T08:20:52.095Z,51.6
2019-02-27T08:21:52.484Z,51.4
2019-02-27T08:22:53.970Z,50.3
2019-02-27T08:23:55.460Z,48.6
2019-02-27T08:24:56.980Z,48.6
2019-02-27T08:25:58.452Z,48.5
2019-02-27T08:26:59.924Z,48.8
2019-02-27T08:28:01.313Z,48.2
2019-02-27T08:29:02.795Z,49.4
2019-02-27T08:30:04.289Z,49.3
2019-02-27T08:31:05.799Z,49.3
2019-02-27T08:32:07.316Z,49.0
2019-02-27T08:33:09.041Z,49.6
2019-02-27T08:34:10.297Z,49.5
2019-02-27T08:35:11.797Z,49.0
2019-02-27T08:36:13.311Z,48.9
2019-02-27T08:37:14.814Z,47.6
2019-02-27T08:38:16.387Z,46.4
2019-02-27T08:39:17.917Z,45.3
2019-02-27T08:40:24.074Z,47.0
2019-02-27T08:41:20.830Z,47.5
2019-02-27T08:42:22.300Z,46.4
2019-02-27T08:43:23.753Z,46.9
2019-02-27T08:44:25.234Z,46.8
2019-02-27T08:45:27.084Z,46.5
2019-02-27T08:46:28.245Z,46.7
2019-02-27T08:47:29.792Z,47.7
2019-02-27T08:48:31.308Z,47.2
2019-02-27T08:49:32.840Z,47.2
2019-02-27T08:50:34.326Z,47.7
2019-02-27T08:51:35.818Z,47.3
2019-02-27T08:52:37.365Z,47.2
2019-02-27T08:53:38.881Z,47.1
2019-02-27T08:54:40.457Z,47.0
2019-02-27T08:55:41.952Z,45.9
2019-02-27T08:56:44.045Z,45.2
2019-02-27T08:57:44.830Z,45.4
2019-02-27T08:58:46.252Z,46.2
2019-02-27T08:59:47.806Z,46.0
2019-02-27T09:00:49.322Z,46.5
2019-02-27T09:01:55.420Z,44.9
2019-02-27T09:02:52.144Z,42.9
2019-02-27T09:03:53.573Z,42.2
2019-02-27T09:04:55.055Z,41.6
2019-02-27T09:05:56.555Z,41.4
2019-02-27T09:07:02.147Z,42.0
2019-02-27T09:07:59.549Z,42.8
2019-02-27T09:09:01.065Z,42.8
2019-02-27T09:10:02.530Z,41.8
2019-02-27T09:11:06.562Z,41.9
2019-02-27T09:12:05.504Z,42.6
2019-02-27T09:13:07.010Z,43.5
2019-02-27T09:14:08.458Z,42.7
2019-02-27T09:15:09.972Z,42.5
2019-02-27T09:16:11.412Z,41.9
2019-02-27T09:17:12.898Z,43.0
2019-02-27T09:18:14.289Z,42.8
2019-02-27T09:19:15.890Z,42.8
2019-02-27T09:20:19.644Z,43.2
2019-02-27T09:21:18.798Z,43.9
2019-02-27T09:22:20.247Z,43.7
2019-02-27T09:23:21.800Z,42.1
2019-02-27T09:24:23.261Z,42.1
2019-02-27T09:25:24.975Z,41.8
2019-02-27T09:26:26.196Z,41.4
2019-02-27T09:27:27.659Z,41.5
2019-02-27T09:28:29.116Z,40.6
2019-02-27T09:29:30.588Z,40.7
2019-02-27T09:30:32.091Z,40.5
2019-02-27T09:31:34.716Z,40.6
2019-02-27T09:32:35.152Z,39.7
2019-02-27T09:33:38.931Z,39.2
2019-02-27T09:34:38.141Z,37.5
2019-02-27T09:35:39.596Z,38.3
2019-02-27T09:36:43.051Z,38.5
2019-02-27T09:37:42.414Z,38.9
2019-02-27T09:38:45.160Z,39.4
2019-02-27T09:39:45.370Z,39.7
2019-02-27T09:40:46.818Z,40.2
2019-02-27T09:41:48.266Z,39.8
2019-02-27T09:42:50.320Z,38.3
2019-02-27T09:43:51.195Z,37.6
2019-02-27T09:44:52.652Z,38.3
2019-02-27T09:45:54.152Z,37.8
2019-02-27T09:46:55.607Z,37.3
2019-02-27T09:47:59.498Z,36.1
2019-02-27T09:48:58.535Z,34.7
2019-02-27T09:49:59.937Z,34.6
2019-02-27T09:51:01.449Z,34.6
2019-02-27T09:52:02.902Z,33.4
2019-02-27T09:53:04.498Z,34.1
2019-02-27T09:54:05.861Z,34.5
2019-02-27T09:55:07.339Z,33.6
2019-02-27T09:56:08.861Z,33.8
2019-02-27T09:57:10.422Z,32.9
2019-02-27T09:58:11.904Z,32.9
2019-02-27T09:59:13.416Z,31.6
2019-02-27T10:00:14.886Z,31.8
2019-02-27T10:01:16.347Z,33.4
2019-02-27T10:02:17.855Z,34.0
2019-02-27T10:03:21.242Z,34.2
2019-02-27T10:04:20.795Z,33.6
2019-02-27T10:05:22.255Z,32.5
2019-02-27T10:06:23.724Z,31.7
2019-02-27T10:07:25.144Z,33.0
2019-02-27T10:08:26.616Z,31.6
2019-02-27T10:09:28.110Z,31.5
2019-02-27T10:10:29.594Z,32.8
2019-02-27T10:11:31.112Z,31.0
2019-02-27T10:12:32.590Z,30.1
2019-02-27T10:13:35.527Z,30.0
2019-02-27T10:14:35.512Z,30.0
2019-02-27T10:15:37.054Z,30.7
2019-02-27T10:16:38.563Z,31.0
2019-02-27T10:17:41.088Z,30.2
2019-02-27T10:18:41.425Z,29.8
2019-02-27T10:19:42.901Z,29.9
2019-02-27T10:20:44.381Z,29.0
2019-02-27T10:21:47.474Z,30.4
2019-02-27T10:22:47.583Z,28.9
2019-02-27T10:23:49.023Z,28.6
2019-02-27T10:24:50.449Z,27.7
2019-02-27T10:25:51.914Z,28.9
2019-02-27T10:26:53.611Z,27.9
2019-02-27T10:27:54.816Z,28.6
2019-02-27T10:28:56.280Z,28.5
2019-02-27T10:29:57.689Z,27.8
2019-02-27T10:30:59.136Z,27.6
2019-02-27T10:32:00.800Z,28.0
2019-02-27T10:33:03.267Z,27.2
2019-02-27T10:34:03.476Z,26.9
2019-02-27T10:35:04.908Z,26.8
2019-02-27T10:36:06.324Z,27.2
2019-02-27T10:37:07.841Z,27.1
2019-02-27T10:38:09.169Z,27.3
2019-02-27T10:39:10.581Z,26.8
2019-02-27T10:40:12.100Z,27.6
2019-02-27T10:41:13.381Z,28.1
2019-02-27T10:42:14.823Z,27.8
2019-02-27T10:43:16.281Z,27.7
2019-02-27T10:44:17.744Z,28.5
2019-02-27T10:45:19.224Z,27.6
2019-02-27T10:46:23.520Z,27.2
2019-02-27T10:47:22.115Z,27.4
2019-02-27T10:48:23.585Z,28.0
2019-02-27T10:49:25.023Z,26.9
2019-02-27T10:50:26.477Z,26.2
2019-02-27T10:51:27.982Z,26.3
2019-02-27T10:52:29.435Z,27.1
2019-02-27T10:53:30.858Z,26.4
2019-02-27T10:54:32.348Z,26.0
2019-02-27T10:55:33.869Z,27.1
2019-02-27T10:56:35.449Z,26.6
2019-02-27T10:57:38.350Z,26.3
2019-02-27T10:58:38.298Z,26.3
2019-02-27T10:59:39.794Z,26.8
2019-02-27T11:00:41.277Z,27.9
2019-02-27T11:01:42.748Z,28.2
2019-02-27T11:02:45.127Z,27.6
2019-02-27T11:03:45.603Z,25.6
2019-02-27T11:04:47.073Z,24.8
2019-02-27T11:05:52.042Z,23.5
2019-02-27T11:06:50.000Z,24.8
2019-02-27T11:07:53.004Z,25.9
2019-02-27T11:08:52.874Z,25.9
2019-02-27T11:09:54.392Z,26.2
2019-02-27T11:10:55.819Z,27.0
2019-02-27T11:11:57.270Z,27.1
2019-02-27T11:12:58.717Z,25.1
2019-02-27T11:14:00.164Z,23.8
2019-02-27T11:15:01.617Z,22.8
2019-02-27T11:16:03.156Z,22.1
2019-02-27T11:17:04.575Z,20.4
2019-02-27T11:18:06.021Z,20.6
2019-02-27T11:19:07.458Z,19.6
2019-02-27T11:20:08.877Z,19.0
2019-02-27T11:21:10.410Z,19.0
2019-02-27T11:22:11.844Z,17.9
2019-02-27T11:23:13.288Z,19.0
2019-02-27T11:24:16.802Z,19.8
2019-02-27T11:25:16.251Z,19.0
2019-02-27T11:26:17.758Z,19.8
2019-02-27T11:27:19.209Z,19.0
2019-02-27T11:28:20.659Z,18.4
2019-02-27T11:29:23.727Z,18.2
2019-02-27T11:30:23.549Z,18.1
2019-02-27T11:31:25.007Z,16.9
2019-02-27T11:32:26.478Z,16.7
2019-02-27T11:33:32.694Z,18.2
2019-02-27T11:34:29.372Z,18.7
2019-02-27T11:35:30.869Z,16.6
2019-02-27T11:36:32.321Z,16.7
2019-02-27T11:37:33.816Z,17.5
2019-02-27T11:38:35.273Z,17.5
2019-02-27T11:39:36.765Z,16.0
2019-02-27T11:40:41.552Z,16.1
2019-02-27T11:41:39.605Z,16.8
2019-02-27T11:42:41.025Z,16.4
2019-02-27T11:43:42.489Z,17.7
2019-02-27T11:44:43.968Z,18.4
2019-02-27T11:45:45.334Z,18.4
2019-02-27T11:46:57.657Z,19.0
2019-02-27T11:47:48.226Z,18.0
2019-02-27T11:48:49.500Z,16.6
2019-02-27T11:49:50.933Z,18.1
2019-02-27T11:50:52.397Z,18.0
2019-02-27T11:51:53.977Z,18.1
2019-02-27T11:52:55.235Z,17.3
2019-02-27T11:53:56.658Z,16.6
2019-02-27T11:54:58.216Z,16.8
2019-02-27T11:55:59.694Z,16.7
2019-02-27T11:57:01.159Z,15.8
2019-02-27T11:58:05.405Z,15.8
2019-02-27T11:59:03.985Z,15.6
2019-02-27T12:00:05.480Z,16.3
2019-02-27T12:01:06.922Z,16.6
2019-02-27T12:02:08.359Z,16.3
2019-02-27T12:03:11.149Z,16.9
2019-02-27T12:04:11.128Z,16.9
2019-02-27T12:05:12.528Z,16.5
2019-02-27T12:06:13.931Z,15.9
2019-02-27T12:07:17.194Z,17.1
2019-02-27T12:08:16.714Z,17.2
2019-02-27T12:09:18.163Z,17.1
2019-02-27T12:10:19.590Z,16.0
2019-02-27T12:11:21.004Z,16.0
2019-02-27T12:12:23.389Z,16.9
2019-02-27T12:13:23.808Z,17.4
2019-02-27T12:14:25.196Z,16.9
2019-02-27T12:15:27.305Z,16.0
2019-02-27T12:16:27.958Z,16.6
2019-02-27T12:17:29.355Z,16.9
2019-02-27T12:18:32.206Z,17.0
2019-02-27T12:19:32.139Z,16.9
2019-02-27T12:20:33.554Z,17.5
2019-02-27T12:21:34.987Z,17.3
2019-02-27T12:22:36.430Z,17.0
2019-02-27T12:23:37.800Z,17.1
2019-02-27T12:24:39.210Z,16.9
2019-02-27T12:25:40.606Z,16.1
2019-02-27T12:26:42.034Z,14.8
2019-02-27T12:27:49.294Z,15.7
2019-02-27T12:28:44.841Z,16.0
2019-02-27T12:29:46.274Z,16.2
2019-02-27T12:30:47.703Z,15.6
2019-02-27T12:31:49.146Z,16.3
2019-02-27T12:32:53.231Z,15.9
2019-02-27T12:33:52.043Z,14.8
2019-02-27T12:34:53.531Z,14.4
2019-02-27T12:35:55.024Z,13.6
2019-02-27T12:36:56.519Z,15.5
2019-02-27T12:37:57.959Z,16.3
2019-02-27T12:38:59.390Z,16.9
2019-02-27T12:40:00.833Z,16.1
2019-02-27T12:41:02.279Z,16.4
2019-02-27T12:42:04.164Z,15.3
2019-02-27T12:43:05.079Z,14.6
2019-02-27T12:44:06.491Z,15.5
2019-02-27T12:45:07.936Z,15.5
2019-02-27T12:46:09.759Z,15.7
2019-02-27T12:47:10.741Z,15.6
2019-02-27T12:48:12.592Z,16.2
2019-02-27T12:49:13.576Z,15.3
2019-02-27T12:50:14.993Z,15.4
2019-02-27T12:51:16.418Z,15.7
2019-02-27T12:52:17.806Z,15.9
2019-02-27T12:53:21.638Z,16.6
2019-02-27T12:54:20.589Z,16.5
2019-02-27T12:55:21.989Z,16.3
2019-02-27T12:56:23.392Z,15.5
2019-02-27T12:57:24.779Z,16.4
2019-02-27T12:58:26.173Z,16.6
2019-02-27T12:59:27.568Z,16.5
2019-02-27T13:00:29.279Z,16.7
2019-02-27T13:01:30.825Z,16.0
2019-02-27T13:02:35.639Z,15.1
2019-02-27T13:03:34.116Z,15.8
2019-02-27T13:04:35.557Z,15.0
2019-02-27T13:05:36.962Z,14.5
2019-02-27T13:06:38.432Z,14.8
2019-02-27T13:07:42.154Z,15.4
2019-02-27T13:08:41.267Z,15.5
2019-02-27T13:09:42.667Z,15.0
2019-02-27T13:10:44.066Z,14.4
2019-02-27T13:11:45.451Z,13.1
2019-02-27T13:12:49.219Z,13.6
2019-02-27T13:13:48.227Z,14.4
2019-02-27T13:14:49.622Z,15.4
2019-02-27T13:15:51.010Z,14.5
2019-02-27T13:16:52.417Z,14.4
2019-02-27T13:17:57.620Z,13.8
2019-02-27T13:18:55.187Z,14.5
2019-02-27T13:19:56.575Z,14.9
2019-02-27T13:20:57.962Z,15.2
2019-02-27T13:21:59.352Z,14.7
2019-02-27T13:23:04.158Z,13.1
2019-02-27T13:24:02.104Z,13.8
2019-02-27T13:25:03.519Z,15.0
2019-02-27T13:26:04.922Z,14.6
2019-02-27T13:27:09.034Z,15.9
2019-02-27T13:28:07.659Z,15.9
2019-02-27T13:29:09.059Z,16.0
2019-02-27T13:30:10.463Z,15.6
2019-02-27T13:31:13.658Z,15.8
2019-02-27T13:32:13.242Z,15.8
2019-02-27T13:33:14.742Z,16.3
2019-02-27T13:34:16.140Z,15.4
2019-02-27T13:35:20.152Z,15.5
2019-02-27T13:36:18.998Z,16.2
2019-02-27T13:37:20.376Z,16.1
2019-02-27T13:38:21.792Z,15.7